Time;durP1;ratioP1;P1;durP2;ratioP2;P2;SDS_P1;SDS_P2;PMS_P1;PMS_P2;Temp;Humidity;BMP_temperature;BMP_pressure;BME280_temperature;BME280_humidity;BME280_pressure;Samples;Min_cycle;Max_cycle;Signal;HPM_P1;HPM_P2
2022/03/01 00:01:23;;;;;;;8.43;7.57;;;4.60;99.90;;;;;;5078239;28;20461;-63
2022/03/01 00:03:50;;;;;;;11.53;7.30;;;4.70;99.90;;;;;;5078907;28;20497;-64
2022/03/01 00:06:17;;;;;;;8.87;7.40;;;4.70;99.90;;;;;;5079304;28;20878;-63
2022/03/01 00:08:44;;;;;;;9.47;7.97;;;4.60;99.90;;;;;;5078208;28;20461;-64
2022/03/01 00:11:17;;;;;;;12.43;8.63;;;4.50;99.90;;;;;;5078882;28;20453;-63
2022/03/01 00:13:44;;;;;;;10.20;7.93;;;4.50;99.90;;;;;;5078352;28;20457;-63
2022/03/01 00:16:11;;;;;;;10.83;8.60;;;4.40;99.90;;;;;;5078294;28;20463;-63
2022/03/01 00:18:38;;;;;;;10.00;7.77;;;4.40;99.90;;;;;;5076361;28;20488;-63
2022/03/01 00:21:05;;;;;;;9.80;8.20;;;4.30;99.90;;;;;;5075872;28;20453;-63
2022/03/01 00:23:32;;;;;;;8.90;8.00;;;4.30;99.90;;;;;;5076191;28;20725;-63
2022/03/01 00:26:00;;;;;;;11.40;7.87;;;4.30;99.90;;;;;;5076668;28;20548;-63
2022/03/01 00:28:28;;;;;;;10.77;8.87;;;4.30;99.90;;;;;;5077067;28;20458;-63
2022/03/01 00:30:56;;;;;;;12.03;8.83;;;4.30;99.90;;;;;;5077416;28;20496;-62
2022/03/01 00:33:23;;;;;;;15.10;8.40;;;4.30;99.90;;;;;;5077727;28;20514;-63
2022/03/01 00:35:50;;;;;;;11.40;7.73;;;4.20;99.90;;;;;;5077896;28;20881;-62
2022/03/01 00:38:17;;;;;;;8.20;7.37;;;4.20;99.90;;;;;;5076673;28;20468;-61
2022/03/01 00:40:44;;;;;;;11.23;7.87;;;4.20;99.90;;;;;;5077646;28;20527;-62
2022/03/01 00:43:11;;;;;;;10.47;8.37;;;4.20;99.90;;;;;;5077307;28;20536;-62
2022/03/01 00:45:40;;;;;;;10.87;7.70;;;4.10;99.90;;;;;;5077624;28;20465;-62
2022/03/01 00:48:07;;;;;;;13.20;8.33;;;4.10;99.90;;;;;;5076629;28;20519;-63
2022/03/01 00:50:34;;;;;;;12.33;8.67;;;4.00;99.90;;;;;;5077082;28;20493;-63
2022/03/01 00:53:01;;;;;;;10.90;7.93;;;4.00;99.90;;;;;;5077142;28;20461;-63
2022/03/01 00:55:28;;;;;;;9.57;7.67;;;4.00;99.90;;;;;;5077040;28;20462;-63
2022/03/01 00:57:55;;;;;;;10.63;7.50;;;4.00;99.90;;;;;;5076957;28;20457;-63
2022/03/01 01:00:22;;;;;;;9.07;8.17;;;4.00;99.90;;;;;;5077420;28;20511;-63
2022/03/01 01:02:51;;;;;;;9.53;7.83;;;3.90;99.90;;;;;;5076989;28;20891;-63
2022/03/01 01:05:22;;;;;;;11.00;7.43;;;3.90;99.90;;;;;;5077429;28;20873;-63
2022/03/01 01:07:49;;;;;;;9.30;6.87;;;3.80;99.90;;;;;;5076851;28;20464;-63
2022/03/01 01:10:20;;;;;;;12.07;7.93;;;3.70;99.90;;;;;;5076849;28;20497;-63
2022/03/01 01:12:48;;;;;;;9.97;7.73;;;3.60;99.90;;;;;;5076594;28;20461;-63
2022/03/01 01:15:18;;;;;;;12.27;8.50;;;3.70;99.90;;;;;;5077265;28;20461;-63
2022/03/01 01:17:45;;;;;;;10.50;7.30;;;3.70;99.90;;;;;;5076648;28;20485;-63
2022/03/01 01:20:15;;;;;;;9.83;8.10;;;3.70;99.90;;;;;;5086046;28;20464;-62
2022/03/01 01:22:42;;;;;;;9.30;7.17;;;3.60;99.90;;;;;;5092559;28;20464;-62
2022/03/01 01:25:12;;;;;;;10.67;8.80;;;3.40;99.90;;;;;;5077156;28;20461;-63
2022/03/01 01:27:41;;;;;;;11.03;8.00;;;3.30;99.90;;;;;;5077043;28;20531;-63
2022/03/01 01:30:10;;;;;;;10.60;8.17;;;3.40;99.90;;;;;;5076418;28;20482;-63
2022/03/01 01:32:37;;;;;;;10.50;8.40;;;3.40;99.90;;;;;;5076784;28;21128;-63
2022/03/01 01:35:05;;;;;;;11.10;8.60;;;3.30;99.90;;;;;;5076187;28;20911;-62
2022/03/01 01:37:34;;;;;;;9.27;7.40;;;3.50;99.90;;;;;;5077118;28;20964;-63
2022/03/01 01:40:02;;;;;;;10.90;8.50;;;3.50;99.90;;;;;;5076598;28;20556;-62
2022/03/01 01:42:29;;;;;;;11.93;7.70;;;3.40;99.90;;;;;;5076951;28;20464;-63
2022/03/01 01:44:56;;;;;;;10.30;7.50;;;3.50;99.90;;;;;;5076697;28;20462;-61
2022/03/01 01:47:23;;;;;;;9.70;7.63;;;3.50;99.90;;;;;;5077253;28;20465;-63
2022/03/01 01:49:50;;;;;;;10.13;8.07;;;3.50;99.90;;;;;;5076938;28;20492;-63
2022/03/01 01:52:17;;;;;;;9.70;8.13;;;3.60;99.90;;;;;;5077814;28;20457;-63
2022/03/01 01:54:45;;;;;;;9.77;7.80;;;3.60;99.90;;;;;;5077162;28;20465;-63
2022/03/01 01:57:17;;;;;;;10.87;8.10;;;3.60;99.90;;;;;;5076682;28;20464;-64
2022/03/01 01:59:44;;;;;;;10.50;8.50;;;3.70;99.90;;;;;;5076776;28;20744;-63
2022/03/01 02:02:13;;;;;;;8.60;7.70;;;3.80;99.90;;;;;;5057203;28;20513;-63
2022/03/01 02:04:40;;;;;;;10.40;7.67;;;3.90;99.90;;;;;;5061936;28;20461;-63
2022/03/01 02:07:08;;;;;;;10.00;7.80;;;3.90;99.90;;;;;;5075977;28;20491;-63
2022/03/01 02:09:36;;;;;;;11.80;7.90;;;3.80;99.90;;;;;;5077118;28;20468;-63
2022/03/01 02:12:06;;;;;;;10.27;7.77;;;3.80;99.90;;;;;;5077223;28;20461;-63
2022/03/01 02:14:35;;;;;;;10.10;7.90;;;3.80;99.90;;;;;;5076548;28;20460;-63
2022/03/01 02:17:04;;;;;;;10.30;7.63;;;3.80;99.90;;;;;;5076058;28;20563;-63
2022/03/01 02:19:34;;;;;;;11.63;8.80;;;3.80;99.90;;;;;;5080142;28;20452;-63
2022/03/01 02:22:02;;;;;;;10.10;7.63;;;3.80;99.90;;;;;;5077047;28;20461;-62
2022/03/01 02:24:31;;;;;;;9.50;7.23;;;3.80;99.90;;;;;;5076863;28;20460;-63
2022/03/01 02:26:59;;;;;;;10.53;7.50;;;3.80;99.90;;;;;;5075864;28;20559;-63
2022/03/01 02:29:27;;;;;;;13.73;7.70;;;3.80;99.90;;;;;;5076758;28;20461;-63
2022/03/01 02:31:59;;;;;;;10.27;8.27;;;3.80;99.90;;;;;;5076921;28;20453;-63
2022/03/01 02:34:26;;;;;;;11.10;7.30;;;3.60;99.90;;;;;;5077359;28;20458;-63
2022/03/01 02:36:53;;;;;;;9.70;7.07;;;3.50;99.90;;;;;;5076494;28;20464;-63
2022/03/01 02:39:22;;;;;;;10.33;7.73;;;3.50;99.90;;;;;;5077005;28;20461;-63
2022/03/01 02:41:50;;;;;;;13.27;7.63;;;3.50;99.90;;;;;;5076777;28;20464;-63
2022/03/01 02:44:18;;;;;;;10.37;7.80;;;3.50;99.90;;;;;;5076434;28;20453;-63
2022/03/01 02:46:45;;;;;;;8.60;7.77;;;3.50;99.90;;;;;;5079327;28;20461;-63
2022/03/01 02:49:12;;;;;;;10.70;7.53;;;3.50;99.90;;;;;;5060166;28;20489;-63
2022/03/01 02:51:40;;;;;;;10.63;8.27;;;3.50;99.90;;;;;;5064785;28;20489;-63
2022/03/01 02:54:08;;;;;;;8.53;7.27;;;3.50;99.90;;;;;;5080287;28;20466;-63
2022/03/01 02:56:38;;;;;;;10.73;7.67;;;3.50;99.90;;;;;;5080103;28;20469;-64
2022/03/01 02:59:08;;;;;;;11.00;8.60;;;3.50;99.90;;;;;;5079085;28;20468;-63
2022/03/01 03:01:36;;;;;;;10.50;8.13;;;3.60;99.90;;;;;;5079715;28;20765;-63
2022/03/01 03:04:04;;;;;;;8.00;6.33;;;3.50;99.90;;;;;;5079844;28;20468;-63
2022/03/01 03:06:32;;;;;;;11.60;8.07;;;3.50;99.90;;;;;;5079226;28;20504;-63
2022/03/01 03:09:01;;;;;;;9.90;7.40;;;3.50;99.90;;;;;;5079637;28;20487;-63
2022/03/01 03:11:28;;;;;;;12.20;8.00;;;3.40;99.90;;;;;;5079655;28;20493;-63
2022/03/01 03:13:57;;;;;;;11.90;8.87;;;3.40;99.90;;;;;;5079069;28;20515;-62
2022/03/01 03:16:27;;;;;;;12.47;7.83;;;3.40;99.90;;;;;;5079927;28;20893;-63
2022/03/01 03:18:54;;;;;;;9.40;8.23;;;3.40;99.90;;;;;;5079230;28;20469;-63
2022/03/01 03:21:21;;;;;;;11.63;8.67;;;3.40;99.90;;;;;;5079679;28;20761;-63
2022/03/01 03:23:49;;;;;;;10.27;8.20;;;3.40;99.90;;;;;;5079887;28;20465;-63
2022/03/01 03:26:16;;;;;;;10.10;8.13;;;3.50;99.90;;;;;;5080060;28;20476;-63
2022/03/01 03:28:43;;;;;;;11.30;8.83;;;3.50;99.90;;;;;;5079225;28;20472;-63
2022/03/01 03:31:12;;;;;;;10.33;7.87;;;3.50;99.90;;;;;;5078917;28;20492;-62
2022/03/01 03:33:40;;;;;;;13.73;7.77;;;3.60;99.90;;;;;;5079301;28;20891;-63
2022/03/01 03:36:07;;;;;;;9.80;7.60;;;3.50;99.90;;;;;;5079633;28;20469;-63
2022/03/01 03:38:34;;;;;;;9.50;7.40;;;3.40;99.90;;;;;;5079811;28;20887;-64
2022/03/01 03:41:01;;;;;;;10.43;7.80;;;3.40;99.90;;;;;;5079288;28;20462;-64
2022/03/01 03:43:28;;;;;;;9.93;7.87;;;3.50;99.90;;;;;;5079212;28;20461;-64
2022/03/01 03:45:56;;;;;;;10.63;8.13;;;3.40;99.90;;;;;;5079912;28;20458;-64
2022/03/01 03:48:24;;;;;;;11.23;8.27;;;3.40;99.90;;;;;;5078856;28;20505;-63
2022/03/01 03:50:51;;;;;;;11.60;8.30;;;3.30;99.90;;;;;;5078305;28;20489;-63
2022/03/01 03:53:19;;;;;;;13.23;9.17;;;3.30;99.90;;;;;;5079012;28;20465;-63
2022/03/01 03:55:46;;;;;;;10.70;8.90;;;3.30;99.90;;;;;;5078584;28;20469;-63
2022/03/01 03:58:13;;;;;;;20.63;9.77;;;3.20;99.90;;;;;;5078993;28;20466;-63
2022/03/01 04:00:40;;;;;;;10.37;8.20;;;3.20;99.90;;;;;;5077986;28;20786;-63
2022/03/01 04:03:07;;;;;;;16.90;9.00;;;3.10;99.90;;;;;;5078888;28;20526;-63
2022/03/01 04:05:36;;;;;;;9.97;8.50;;;3.20;99.90;;;;;;5079120;28;20461;-63
2022/03/01 04:08:03;;;;;;;11.50;7.73;;;3.20;99.90;;;;;;5079460;28;20866;-63
2022/03/01 04:10:31;;;;;;;13.60;8.17;;;3.20;99.90;;;;;;5078007;28;20945;-63
2022/03/01 04:12:58;;;;;;;10.27;7.63;;;3.10;99.90;;;;;;5077481;28;20461;-63
2022/03/01 04:15:25;;;;;;;9.53;7.67;;;3.00;99.90;;;;;;5078137;28;20461;-62
2022/03/01 04:17:52;;;;;;;11.20;8.63;;;3.00;99.90;;;;;;5078225;28;20512;-63
2022/03/01 04:20:21;;;;;;;10.73;8.47;;;3.00;99.90;;;;;;5088743;28;20452;-63
2022/03/01 04:22:50;;;;;;;10.20;7.50;;;2.90;99.90;;;;;;5085117;28;20520;-63
2022/03/01 04:25:17;;;;;;;12.20;8.40;;;2.90;99.90;;;;;;5078261;28;20786;-63
2022/03/01 04:27:44;;;;;;;11.90;8.30;;;2.90;99.90;;;;;;5078424;28;20462;-63
2022/03/01 04:30:12;;;;;;;11.30;8.70;;;2.80;99.90;;;;;;5077902;28;20465;-63
2022/03/01 04:32:40;;;;;;;12.50;9.40;;;2.90;99.90;;;;;;5077574;28;20560;-63
2022/03/01 04:35:09;;;;;;;11.67;8.60;;;2.90;99.90;;;;;;5078261;28;20465;-63
2022/03/01 04:37:36;;;;;;;13.30;8.90;;;2.90;99.90;;;;;;5077852;28;20465;-63
2022/03/01 04:40:06;;;;;;;11.93;9.07;;;2.90;99.90;;;;;;5077372;28;20468;-63
2022/03/01 04:42:34;;;;;;;12.43;9.40;;;2.90;99.90;;;;;;5077357;28;20956;-63
2022/03/01 04:45:02;;;;;;;11.57;8.27;;;3.00;99.90;;;;;;5077083;28;20462;-63
2022/03/01 04:47:29;;;;;;;11.73;8.50;;;3.00;99.90;;;;;;5077718;28;20470;-63
2022/03/01 04:49:57;;;;;;;10.20;8.80;;;3.00;99.90;;;;;;5077169;28;20882;-63
2022/03/01 04:52:24;;;;;;;10.73;7.93;;;3.00;99.90;;;;;;5077238;28;20566;-62
2022/03/01 04:54:51;;;;;;;14.47;10.07;;;3.00;99.90;;;;;;5077280;28;20515;-63
2022/03/01 04:57:19;;;;;;;10.83;8.77;;;2.90;99.90;;;;;;5077409;28;20531;-63
2022/03/01 04:59:46;;;;;;;10.17;8.37;;;3.00;99.90;;;;;;5077177;28;20464;-63
2022/03/01 05:02:13;;;;;;;12.87;8.40;;;3.00;99.90;;;;;;5077492;28;20480;-63
2022/03/01 05:04:41;;;;;;;10.90;9.23;;;2.90;99.90;;;;;;5076187;28;20469;-62
2022/03/01 05:07:08;;;;;;;11.90;8.90;;;2.90;99.90;;;;;;5077343;28;20465;-63
2022/03/01 05:09:35;;;;;;;13.63;9.17;;;2.90;99.90;;;;;;5076515;28;20465;-62
2022/03/01 05:12:02;;;;;;;15.33;9.67;;;2.80;99.90;;;;;;5074380;28;21005;-62
2022/03/01 05:14:31;;;;;;;16.80;10.13;;;2.80;99.90;;;;;;5075690;28;20464;-61
2022/03/01 05:17:01;;;;;;;12.40;8.73;;;2.80;99.90;;;;;;5075133;28;20587;-63
2022/03/01 05:19:29;;;;;;;11.47;8.67;;;2.80;99.90;;;;;;5075921;28;20462;-62
2022/03/01 05:21:56;;;;;;;15.03;9.43;;;2.80;99.90;;;;;;5074980;28;20947;-62
2022/03/01 05:24:27;;;;;;;14.83;9.50;;;2.80;99.90;;;;;;5073389;28;20449;-62
2022/03/01 05:26:54;;;;;;;14.30;8.80;;;2.70;99.90;;;;;;5074752;28;20906;-63
2022/03/01 05:29:21;;;;;;;12.80;8.70;;;2.70;99.90;;;;;;5075772;28;20460;-63
2022/03/01 05:31:52;;;;;;;14.77;8.93;;;2.70;99.90;;;;;;5070376;28;20486;-63
2022/03/01 05:34:19;;;;;;;12.90;9.67;;;2.70;99.90;;;;;;5069835;28;20474;-63
2022/03/01 05:36:46;;;;;;;12.10;9.20;;;2.70;99.90;;;;;;5079860;28;20461;-63
2022/03/01 05:39:13;;;;;;;13.27;9.07;;;2.70;99.90;;;;;;5074180;28;20890;-63
2022/03/01 05:41:40;;;;;;;11.50;8.90;;;2.70;99.90;;;;;;5075765;28;20916;-63
2022/03/01 05:44:07;;;;;;;13.13;9.20;;;2.70;99.90;;;;;;5076467;28;20449;-63
2022/03/01 05:46:34;;;;;;;11.30;9.20;;;2.70;99.90;;;;;;5076833;28;20530;-63
2022/03/01 05:49:05;;;;;;;13.00;9.13;;;2.60;99.90;;;;;;5076322;28;20469;-63
2022/03/01 05:51:32;;;;;;;14.90;9.13;;;2.60;99.90;;;;;;5077756;28;20809;-63
2022/03/01 05:53:59;;;;;;;14.33;9.70;;;2.50;99.90;;;;;;5077250;28;20465;-63
2022/03/01 05:56:26;;;;;;;16.50;11.30;;;2.60;99.90;;;;;;5074426;28;20487;-63
2022/03/01 05:58:53;;;;;;;13.50;9.03;;;2.60;99.90;;;;;;5076413;28;20461;-62
2022/03/01 06:01:20;;;;;;;14.50;12.97;;;2.60;99.90;;;;;;5074222;28;20462;-63
2022/03/01 06:03:47;;;;;;;13.33;9.37;;;2.60;99.90;;;;;;5076159;28;20485;-63
2022/03/01 06:06:15;;;;;;;19.60;14.00;;;2.60;99.90;;;;;;5075332;28;20454;-62
2022/03/01 06:08:42;;;;;;;15.43;10.40;;;2.60;99.90;;;;;;5074823;28;20469;-61
2022/03/01 06:11:09;;;;;;;15.17;9.50;;;2.70;99.90;;;;;;5075397;28;20488;-61
2022/03/01 06:13:37;;;;;;;14.17;10.43;;;2.60;99.90;;;;;;5076105;28;20808;-63
2022/03/01 06:16:05;;;;;;;14.80;10.43;;;2.70;99.90;;;;;;5056822;28;20466;-63
2022/03/01 06:18:33;;;;;;;25.40;15.47;;;2.70;99.90;;;;;;5061133;28;20543;-63
2022/03/01 06:21:01;;;;;;;18.20;11.33;;;2.70;99.90;;;;;;5079230;28;20519;-59
2022/03/01 06:23:32;;;;;;;14.13;9.43;;;2.70;99.90;;;;;;5077637;28;20464;-63
2022/03/01 06:25:59;;;;;;;13.90;9.80;;;2.70;99.90;;;;;;5079828;28;20464;-61
2022/03/01 06:28:26;;;;;;;13.17;10.10;;;2.70;99.90;;;;;;5079989;28;20781;-63
2022/03/01 06:30:53;;;;;;;13.77;10.30;;;2.70;99.90;;;;;;5079331;28;20809;-63
2022/03/01 06:33:20;;;;;;;13.60;9.60;;;2.70;99.90;;;;;;5078889;28;20536;-61
2022/03/01 06:35:47;;;;;;;16.33;10.20;;;2.80;99.90;;;;;;5080583;28;20741;-61
2022/03/01 06:38:14;;;;;;;13.30;10.23;;;2.90;99.90;;;;;;5078790;28;20457;-61
2022/03/01 06:40:43;;;;;;;16.77;10.73;;;2.90;99.90;;;;;;5079041;28;20514;-61
2022/03/01 06:43:10;;;;;;;15.80;11.00;;;2.90;99.90;;;;;;5078989;28;20449;-61
2022/03/01 06:45:37;;;;;;;15.50;10.60;;;2.90;99.90;;;;;;5079046;28;20507;-61
2022/03/01 06:48:04;;;;;;;16.40;11.63;;;2.90;99.90;;;;;;5077534;28;20453;-60
2022/03/01 06:50:31;;;;;;;20.40;11.13;;;2.90;99.90;;;;;;5078396;28;20768;-60
2022/03/01 06:52:58;;;;;;;13.97;10.57;;;2.90;99.90;;;;;;5078450;28;20587;-61
2022/03/01 06:55:25;;;;;;;12.93;9.20;;;3.00;99.90;;;;;;5079793;28;20770;-60
2022/03/01 06:57:55;;;;;;;16.33;10.20;;;3.00;99.90;;;;;;5078654;28;20473;-60
2022/03/01 07:00:22;;;;;;;16.50;10.53;;;3.00;99.90;;;;;;5078465;28;20468;-59
2022/03/01 07:02:49;;;;;;;12.97;9.70;;;3.00;99.90;;;;;;5078001;28;20468;-58
2022/03/01 07:05:17;;;;;;;16.93;10.20;;;3.10;99.90;;;;;;5079478;28;20469;-61
2022/03/01 07:07:44;;;;;;;15.00;10.37;;;3.10;99.90;;;;;;5079389;28;20440;-60
2022/03/01 07:10:14;;;;;;;13.63;10.03;;;3.20;99.90;;;;;;5080066;28;20472;-61
2022/03/01 07:12:42;;;;;;;16.70;10.37;;;3.30;99.90;;;;;;5078270;28;20848;-56
2022/03/01 07:15:13;;;;;;;15.37;9.90;;;3.40;99.90;;;;;;5078708;28;20468;-57
2022/03/01 07:17:40;;;;;;;13.97;10.57;;;3.40;99.90;;;;;;5078481;28;20493;-59
2022/03/01 07:20:09;;;;;;;16.20;10.20;;;3.40;99.90;;;;;;5078789;28;20460;-61
2022/03/01 07:22:37;;;;;;;16.43;10.60;;;3.30;99.90;;;;;;5077591;28;20463;-60
2022/03/01 07:25:05;;;;;;;14.50;10.00;;;3.40;99.90;;;;;;5078496;28;20523;-61
2022/03/01 07:27:32;;;;;;;12.23;9.50;;;3.40;99.90;;;;;;5078420;28;20464;-58
2022/03/01 07:30:00;;;;;;;17.43;11.27;;;3.50;99.90;;;;;;5078292;28;20465;-59
2022/03/01 07:32:28;;;;;;;17.50;11.60;;;3.40;99.90;;;;;;5077308;28;20508;-61
2022/03/01 07:34:55;;;;;;;14.07;10.20;;;3.50;99.90;;;;;;5078666;28;20466;-58
2022/03/01 07:37:22;;;;;;;15.50;10.40;;;3.50;99.90;;;;;;5078968;28;20468;-58
2022/03/01 07:39:49;;;;;;;14.73;9.83;;;3.50;99.90;;;;;;5077629;28;20465;-60
2022/03/01 07:42:19;;;;;;;13.77;10.43;;;3.60;99.90;;;;;;5079209;28;20449;-61
2022/03/01 07:44:48;;;;;;;15.00;10.23;;;3.70;99.90;;;;;;5078402;28;20519;-60
2022/03/01 07:47:18;;;;;;;17.50;10.90;;;3.80;99.90;;;;;;5078830;28;20552;-57
2022/03/01 07:49:47;;;;;;;15.60;11.40;;;3.90;99.90;;;;;;5078137;28;20465;-60
2022/03/01 07:52:14;;;;;;;14.47;10.63;;;3.90;99.90;;;;;;5078843;28;20489;-59
2022/03/01 07:54:41;;;;;;;15.10;11.80;;;3.90;99.90;;;;;;5078865;28;20901;-61
2022/03/01 07:57:10;;;;;;;20.73;11.50;;;3.90;99.90;;;;;;5078960;28;20461;-60
2022/03/01 07:59:37;;;;;;;19.00;12.07;;;4.00;99.90;;;;;;5078083;28;20458;-58
2022/03/01 08:02:05;;;;;;;15.80;11.67;;;4.10;99.90;;;;;;5078807;28;20882;-58
2022/03/01 08:04:34;;;;;;;16.57;10.07;;;4.20;99.90;;;;;;5077504;28;20468;-59
2022/03/01 08:07:06;;;;;;;17.87;10.93;;;4.30;99.90;;;;;;5078242;28;20461;-59
2022/03/01 08:09:33;;;;;;;12.17;9.37;;;4.40;99.90;;;;;;5078178;28;20461;-58
2022/03/01 08:12:02;;;;;;;13.27;9.50;;;4.60;99.90;;;;;;5077879;28;20500;-58
2022/03/01 08:14:30;;;;;;;15.27;9.27;;;4.90;99.90;;;;;;5077915;28;20466;-60
2022/03/01 08:16:57;;;;;;;14.47;9.80;;;5.00;99.90;;;;;;5078008;28;20492;-57
2022/03/01 08:19:24;;;;;;;13.83;9.90;;;5.30;99.90;;;;;;5079972;28;20519;-58
2022/03/01 08:21:54;;;;;;;13.00;9.70;;;5.60;99.90;;;;;;5093316;28;20458;-61
2022/03/01 08:24:23;;;;;;;13.60;10.10;;;6.00;99.90;;;;;;5078002;28;20465;-62
2022/03/01 08:26:50;;;;;;;15.50;11.00;;;6.30;99.90;;;;;;5077586;28;20955;-61
2022/03/01 08:29:20;;;;;;;15.10;9.60;;;6.60;99.90;;;;;;5077973;28;20482;-62
2022/03/01 08:31:47;;;;;;;17.73;10.43;;;6.70;99.90;;;;;;5077601;28;20492;-59
2022/03/01 08:34:15;;;;;;;16.90;10.57;;;7.00;99.90;;;;;;5077839;28;20530;-62
2022/03/01 08:36:44;;;;;;;13.80;9.37;;;7.00;99.90;;;;;;5077139;28;20469;-62
2022/03/01 08:39:11;;;;;;;13.10;8.73;;;7.00;99.90;;;;;;5077436;28;20518;-59
2022/03/01 08:41:40;;;;;;;13.47;9.30;;;6.90;99.90;;;;;;5076885;28;20515;-61
2022/03/01 08:44:07;;;;;;;12.73;10.43;;;6.70;99.90;;;;;;5076085;28;20461;-60
2022/03/01 08:46:34;;;;;;;12.83;9.17;;;6.40;99.90;;;;;;5076739;28;20461;-60
2022/03/01 08:49:01;;;;;;;13.67;10.73;;;6.20;99.90;;;;;;5074148;28;20825;-61
2022/03/01 08:51:28;;;;;;;11.63;9.80;;;6.20;99.90;;;;;;5076175;28;20854;-61
2022/03/01 08:53:56;;;;;;;12.07;9.30;;;6.30;99.90;;;;;;5077115;28;20457;-58
2022/03/01 08:56:23;;;;;;;14.97;11.20;;;6.40;99.90;;;;;;5076884;28;20514;-58
2022/03/01 08:58:52;;;;;;;13.27;9.27;;;6.60;99.90;;;;;;5076693;28;20474;-61
2022/03/01 09:01:19;;;;;;;11.33;8.80;;;6.80;99.90;;;;;;5076993;28;20462;-60
2022/03/01 09:03:47;;;;;;;12.90;9.30;;;6.90;99.90;;;;;;5076297;28;20468;-57
2022/03/01 09:06:14;;;;;;;14.77;9.70;;;7.10;99.90;;;;;;5077016;28;20462;-61
2022/03/01 09:08:44;;;;;;;10.73;8.67;;;7.30;99.90;;;;;;5076526;28;20461;-60
2022/03/01 09:11:11;;;;;;;11.30;8.90;;;7.50;99.90;;;;;;5077132;28;20495;-57
2022/03/01 09:13:39;;;;;;;11.57;8.30;;;7.70;99.90;;;;;;5076139;28;20499;-58
2022/03/01 09:16:08;;;;;;;10.90;8.90;;;7.90;99.90;;;;;;5076884;28;20457;-56
2022/03/01 09:18:38;;;;;;;13.47;9.77;;;8.00;99.90;;;;;;5077059;28;20591;-58
2022/03/01 09:21:08;;;;;;;12.00;8.63;;;7.80;99.90;;;;;;5076345;28;20464;-60
2022/03/01 09:23:35;;;;;;;11.03;8.30;;;7.70;99.90;;;;;;5076458;28;20461;-59
2022/03/01 09:26:03;;;;;;;12.93;9.30;;;7.70;99.90;;;;;;5077429;28;20473;-61
2022/03/01 09:28:30;;;;;;;10.67;8.80;;;7.80;99.90;;;;;;5076760;28;20461;-61
2022/03/01 09:30:57;;;;;;;12.37;9.83;;;7.80;99.90;;;;;;5077028;28;20510;-61
2022/03/01 09:33:25;;;;;;;13.43;8.60;;;7.90;99.90;;;;;;5076883;28;20492;-62
2022/03/01 09:35:52;;;;;;;12.00;9.97;;;7.90;99.90;;;;;;5077039;28;20484;-61
2022/03/01 09:38:26;;;;;;;11.87;9.47;;;8.00;99.90;;;;;;5075606;28;20515;-57
2022/03/01 09:40:53;;;;;;;13.33;8.57;;;8.20;99.90;;;;;;5075860;28;20515;-60
2022/03/01 09:43:23;;;;;;;14.67;9.63;;;8.10;99.90;;;;;;5075632;28;20461;-61
2022/03/01 09:45:59;;;;;;;13.30;9.63;;;8.10;99.90;;;;;;5077012;28;20465;-61
2022/03/01 09:48:28;;;;;;;11.20;8.63;;;8.10;99.90;;;;;;5076519;28;20469;-58
2022/03/01 09:50:56;;;;;;;13.57;9.60;;;7.90;99.90;;;;;;5076012;28;20461;-59
2022/03/01 09:53:23;;;;;;;14.60;10.30;;;7.60;99.90;;;;;;5075913;28;20488;-59
2022/03/01 09:55:52;;;;;;;11.90;8.67;;;7.40;99.90;;;;;;5079287;28;20465;-59
2022/03/01 09:58:21;;;;;;;14.40;9.03;;;7.60;99.90;;;;;;5080427;28;20466;-57
2022/03/01 10:00:49;;;;;;;12.20;9.43;;;7.50;99.90;;;;;;5080482;28;20461;-60
2022/03/01 10:03:20;;;;;;;15.90;10.30;;;7.60;99.90;;;;;;5080678;28;20457;-58
2022/03/01 10:05:50;;;;;;;9.53;7.43;;;7.60;99.90;;;;;;5080460;28;20568;-61
2022/03/01 10:08:20;;;;;;;10.80;8.93;;;7.80;99.90;;;;;;5080771;28;20465;-58
2022/03/01 10:10:49;;;;;;;13.03;8.90;;;8.10;99.90;;;;;;5080578;28;20472;-58
2022/03/01 10:13:22;;;;;;;12.83;9.33;;;8.60;99.90;;;;;;5080461;28;20493;-57
2022/03/01 10:15:51;;;;;;;14.43;9.37;;;9.00;99.90;;;;;;5080070;28;20465;-55
2022/03/01 10:18:18;;;;;;;11.93;9.30;;;9.50;99.90;;;;;;5079835;28;20499;-56
2022/03/01 10:20:47;;;;;;;11.93;9.73;;;9.80;99.90;;;;;;5093833;28;20456;-50
2022/03/01 10:23:23;;;;;;;13.73;9.83;;;10.30;99.90;;;;;;5100568;28;20467;-57
2022/03/01 10:25:53;;;;;;;11.83;9.63;;;10.80;99.90;;;;;;5093821;28;20465;-58
2022/03/01 10:28:34;;;;;;;13.33;8.80;;;11.20;99.90;;;;;;5080160;28;20769;-59
2022/03/01 10:31:11;;;;;;;14.17;10.20;;;11.50;99.90;;;;;;5079572;28;20469;-57
2022/03/01 10:33:40;;;;;;;12.47;9.90;;;11.20;99.90;;;;;;5080188;28;20499;-53
2022/03/01 10:36:07;;;;;;;14.10;9.73;;;11.30;99.90;;;;;;5079964;28;20921;-58
2022/03/01 10:38:39;;;;;;;12.00;9.63;;;11.40;99.90;;;;;;5079924;28;20510;-57
2022/03/01 10:41:08;;;;;;;12.47;10.13;;;11.10;99.90;;;;;;5080070;28;20465;-58
2022/03/01 10:43:35;;;;;;;14.40;10.20;;;10.80;99.90;;;;;;5080314;28;20886;-56
2022/03/01 10:46:10;;;;;;;11.03;9.50;;;10.40;99.90;;;;;;5079578;28;20472;-58
2022/03/01 10:48:40;;;;;;;15.10;11.13;;;10.40;99.90;;;;;;5069378;28;20460;-57
2022/03/01 10:51:08;;;;;;;20.97;10.67;;;10.40;99.90;;;;;;5079425;28;20465;-58
2022/03/01 10:53:41;;;;;;;12.93;10.07;;;10.40;99.90;;;;;;5079276;28;20489;-57
2022/03/01 10:56:11;;;;;;;12.93;10.20;;;10.30;99.90;;;;;;5079842;28;20469;-57
2022/03/01 10:58:42;;;;;;;13.53;10.00;;;10.20;99.90;;;;;;5079219;28;20473;-58
2022/03/01 11:01:10;;;;;;;12.30;9.60;;;10.00;99.90;;;;;;5079517;28;20501;-56
2022/03/01 11:03:37;;;;;;;17.90;10.63;;;9.70;99.90;;;;;;5079468;28;20572;-57
2022/03/01 11:06:05;;;;;;;13.43;10.30;;;9.50;99.90;;;;;;5077876;28;20535;-58
2022/03/01 11:08:39;;;;;;;12.90;11.37;;;9.40;99.90;;;;;;5078320;28;20469;-58
2022/03/01 11:11:07;;;;;;;11.93;9.90;;;9.50;99.90;;;;;;5078515;28;20492;-58
2022/03/01 11:13:37;;;;;;;13.07;9.60;;;9.70;99.90;;;;;;5077402;28;20782;-58
2022/03/01 11:16:47;;;;;;;13.20;9.60;;;9.80;99.90;;;;;;5078215;28;20487;-58
2022/03/01 11:19:41;;;;;;;14.00;9.73;;;9.80;99.90;;;;;;5078449;28;20464;-59
2022/03/01 11:22:19;;;;;;;13.13;10.40;;;9.80;99.90;;;;;;5079566;28;20461;-59
2022/03/01 11:24:49;;;;;;;11.90;9.17;;;9.90;99.90;;;;;;5079122;28;20449;-58
2022/03/01 11:27:21;;;;;;;11.60;9.50;;;10.10;99.90;;;;;;5078550;28;20510;-59
2022/03/01 11:29:49;;;;;;;11.70;9.17;;;9.90;99.90;;;;;;5075970;28;20460;-59
2022/03/01 11:32:18;;;;;;;12.07;8.93;;;9.90;99.90;;;;;;5095228;28;20475;-59
2022/03/01 11:34:48;;;;;;;11.87;9.90;;;10.00;99.90;;;;;;5077060;28;20457;-58
2022/03/01 11:37:17;;;;;;;13.00;9.40;;;9.90;99.90;;;;;;5077375;28;20514;-58
2022/03/01 11:39:45;;;;;;;13.93;10.73;;;10.00;99.90;;;;;;5077410;28;20470;-58
2022/03/01 11:42:21;;;;;;;11.67;9.17;;;10.10;99.90;;;;;;5078670;28;20469;-58
2022/03/01 11:44:50;;;;;;;11.87;10.23;;;10.20;99.90;;;;;;5078221;28;20816;-58
2022/03/01 11:47:27;;;;;;;14.90;10.40;;;10.30;99.90;;;;;;5078845;28;20511;-56
2022/03/01 11:49:54;;;;;;;12.23;9.30;;;10.30;99.90;;;;;;5078308;28;20440;-56
2022/03/01 11:52:23;;;;;;;11.87;9.07;;;10.00;99.90;;;;;;5078730;28;20878;-57
2022/03/01 11:54:52;;;;;;;12.10;10.20;;;10.00;99.90;;;;;;5077966;28;20453;-59
2022/03/01 11:57:26;;;;;;;14.53;10.73;;;10.40;99.90;;;;;;5078629;28;20461;-57
2022/03/01 11:59:54;;;;;;;16.23;10.40;;;10.60;99.90;;;;;;5078306;28;20461;-58
2022/03/01 12:02:24;;;;;;;15.00;11.53;;;10.60;99.90;;;;;;5077979;28;20520;-58
2022/03/01 12:04:55;;;;;;;16.30;9.50;;;10.50;99.90;;;;;;5077865;28;20821;-58
2022/03/01 12:07:27;;;;;;;16.70;12.20;;;10.20;99.90;;;;;;5078647;28;20472;-55
2022/03/01 12:09:56;;;;;;;14.07;9.83;;;10.30;99.90;;;;;;5078020;28;20492;-55
2022/03/01 12:12:34;;;;;;;16.70;12.17;;;10.40;99.90;;;;;;5077347;28;20487;-52
2022/03/01 12:15:07;;;;;;;25.37;18.10;;;11.00;99.90;;;;;;5077636;28;20460;-56
2022/03/01 12:17:42;;;;;;;17.83;11.90;;;11.50;99.90;;;;;;5077682;28;20481;-59
2022/03/01 12:20:11;;;;;;;14.03;11.50;;;11.90;99.90;;;;;;5086759;28;20483;-57
2022/03/01 12:22:49;;;;;;;12.73;9.97;;;12.00;99.90;;;;;;5086069;28;20510;-54
2022/03/01 12:25:20;;;;;;;16.63;13.93;;;11.60;99.90;;;;;;5078576;28;20453;-56
2022/03/01 12:27:50;;;;;;;17.13;12.83;;;11.40;99.90;;;;;;5077036;28;20457;-58
2022/03/01 12:30:20;;;;;;;12.33;11.00;;;11.10;99.90;;;;;;5078006;28;20481;-54
2022/03/01 12:32:58;;;;;;;13.40;10.00;;;11.10;99.90;;;;;;5076407;28;20773;-58
2022/03/01 12:35:28;;;;;;;12.83;10.23;;;11.10;99.90;;;;;;5076327;28;20519;-48
2022/03/01 12:38:06;;;;;;;10.87;8.77;;;11.20;99.90;;;;;;5076453;28;20500;-52
2022/03/01 12:40:33;;;;;;;11.43;9.53;;;11.40;99.90;;;;;;5077449;28;20526;-53
2022/03/01 12:43:07;;;;;;;16.93;12.07;;;11.80;99.90;;;;;;5076865;28;20491;-51
2022/03/01 12:45:36;;;;;;;14.53;11.97;;;12.10;99.90;;;;;;5077640;28;20567;-52
2022/03/01 12:48:08;;;;;;;13.70;9.83;;;11.60;99.90;;;;;;5077900;28;20765;-50
2022/03/01 12:50:43;;;;;;;15.60;11.33;;;11.30;99.90;;;;;;5077256;28;20461;-52